KHIE/HIE METAR and TAF weather

Enter ICAO airport designator
Station Type Date Time Source
KHIE METAR 2019/11/14 03:52 UTC NOAA

KHIE 140352Z AUTO 00000KT 10SM CLR M16/M18 A3037 RMK AO2 SLP313 T11611183 TSNO $


Station Type Date Time Source
KHIE Decoded METAR 2019/11/14 03:52 UTC NOAA

MT WASHINGTON REGIONAL AIRPORT , NH, United States (KHIE) 44-22N 71-33W 318M
Nov 13, 2019 - 10:52 PM EST / 2019.11.14 0352 UTC
Wind: Calm:0
Visibility: 10 mile(s):0
Sky conditions: clear
Temperature: 3.0 F (-16.1 C)
Dew Point: -0.9 F (-18.3 C)
Relative Humidity: 83%
Pressure (altimeter): 30.37 in. Hg (1028 hPa)
ob: KHIE 140352Z AUTO 00000KT 10SM CLR M16/M18 A3037 RMK AO2 SLP313 T11611183 TSNO
cycle: 4

Station Type Date Time Source
KHIE TAF 2019/11/14 00:00 UTC NOAA

KHIE 132359Z 1400/1424 VRB02KT P6SM SKC
FM141600 19005KT P6SM OVC050
AMD NOT SKED

Example: see airport list